createdAt,value
2019-05-28T00:01:47.735Z,91.70
2019-05-28T00:04:17.160Z,91.50
2019-05-28T00:06:46.597Z,91.70
2019-05-28T00:09:16.054Z,91.60
2019-05-28T00:11:45.548Z,91.70
2019-05-28T00:14:15.118Z,92.10
2019-05-28T00:16:44.619Z,91.70
2019-05-28T00:19:14.007Z,91.50
2019-05-28T00:21:43.504Z,91.60
2019-05-28T00:24:15.692Z,91.60
2019-05-28T00:26:45.133Z,91.70
2019-05-28T00:29:17.908Z,92.00
2019-05-28T00:31:47.800Z,92.20
2019-05-28T00:34:17.229Z,92.20
2019-05-28T00:36:46.564Z,92.30
2019-05-28T00:39:19.038Z,92.30
2019-05-28T00:41:48.584Z,92.20
2019-05-28T00:44:18.207Z,91.90
2019-05-28T00:46:47.646Z,92.00
2019-05-28T00:49:20.322Z,91.70
2019-05-28T00:51:50.453Z,91.60
2019-05-28T00:54:19.876Z,91.60
2019-05-28T00:56:50.159Z,91.60
2019-05-28T00:59:21.194Z,91.70
2019-05-28T01:01:50.858Z,92.00
2019-05-28T01:04:24.036Z,91.90
2019-05-28T01:07:00.633Z,92.10
2019-05-28T01:09:30.234Z,92.00
2019-05-28T01:11:59.708Z,91.70
2019-05-28T01:14:29.511Z,92.00
2019-05-28T01:16:59.261Z,92.10
2019-05-28T01:19:35.173Z,91.90
2019-05-28T01:22:04.603Z,91.80
2019-05-28T01:24:48.088Z,91.80
2019-05-28T01:27:19.929Z,92.20
2019-05-28T01:29:49.382Z,92.30
2019-05-28T01:32:23.880Z,92.40
2019-05-28T01:34:53.211Z,92.20
2019-05-28T01:37:22.974Z,92.00
2019-05-28T01:39:52.472Z,91.90
2019-05-28T01:42:25.246Z,91.80
2019-05-28T01:44:58.717Z,91.80
2019-05-28T01:48:21.255Z,91.80
2019-05-28T01:50:50.849Z,92.20
2019-05-28T01:53:20.378Z,92.40
2019-05-28T01:55:49.825Z,92.60
2019-05-28T01:58:20.059Z,92.50
2019-05-28T02:00:49.570Z,92.30
2019-05-28T02:03:23.200Z,92.60
2019-05-28T02:05:52.683Z,92.40
2019-05-28T02:08:25.323Z,92.60
2019-05-28T02:10:54.934Z,92.40
2019-05-28T02:13:26.403Z,92.10
2019-05-28T02:15:55.546Z,92.40
2019-05-28T02:18:25.103Z,92.50
2019-05-28T02:20:54.657Z,92.60
2019-05-28T02:23:27.423Z,92.60
2019-05-28T02:25:56.849Z,92.30
2019-05-28T02:28:45.344Z,91.90
2019-05-28T02:31:26.841Z,92.10
2019-05-28T02:33:45.804Z,92.20
2019-05-28T02:36:15.209Z,92.30
2019-05-28T02:38:44.649Z,91.90
2019-05-28T02:41:14.012Z,91.80
2019-05-28T02:43:43.434Z,91.80
2019-05-28T02:46:12.802Z,91.80
2019-05-28T02:48:42.161Z,91.90
2019-05-28T02:51:12.321Z,91.90
2019-05-28T02:53:41.971Z,91.60
2019-05-28T02:56:14.787Z,91.70
2019-05-28T02:58:45.478Z,92.10
2019-05-28T03:01:14.918Z,92.00
2019-05-28T03:03:47.194Z,92.10
2019-05-28T03:06:17.517Z,92.20
2019-05-28T03:08:51.537Z,91.80
2019-05-28T03:11:21.291Z,91.50
2019-05-28T03:13:56.836Z,91.60
2019-05-28T03:17:00.704Z,92.00
2019-05-28T03:19:31.363Z,92.20
2019-05-28T03:22:03.447Z,91.90
2019-05-28T03:24:35.582Z,92.20
2019-05-28T03:27:05.146Z,92.10
2019-05-28T03:29:34.640Z,92.10
2019-05-28T03:32:07.900Z,91.90
2019-05-28T03:34:35.205Z,91.60
2019-05-28T03:37:05.030Z,91.40
2019-05-28T03:39:37.052Z,91.20
2019-05-28T03:42:06.390Z,91.30
2019-05-28T03:44:35.756Z,91.50
2019-05-28T03:47:05.161Z,91.50
2019-05-28T03:49:34.827Z,91.70
2019-05-28T03:52:04.301Z,92.10
2019-05-28T03:54:33.693Z,92.20
2019-05-28T03:57:03.054Z,92.30
2019-05-28T03:59:32.840Z,92.40
2019-05-28T04:02:02.451Z,92.70
2019-05-28T04:04:32.037Z,92.80
2019-05-28T04:07:07.698Z,93.10
2019-05-28T04:09:40.782Z,92.90
2019-05-28T04:12:18.389Z,92.90
2019-05-28T04:15:11.970Z,93.20
2019-05-28T04:17:41.598Z,93.50
2019-05-28T04:20:15.747Z,93.70
2019-05-28T04:22:59.320Z,93.20
2019-05-28T04:25:44.771Z,93.50
2019-05-28T04:28:11.829Z,93.70
2019-05-28T04:30:41.341Z,93.80
2019-05-28T04:33:11.667Z,94.10
2019-05-28T04:38:38.395Z,94.20
2019-05-28T04:41:24.535Z,94.30
2019-05-28T04:43:54.031Z,93.70
2019-05-28T04:46:23.490Z,93.50
2019-05-28T04:48:53.004Z,93.30
2019-05-28T04:51:22.456Z,93.30
2019-05-28T04:53:52.000Z,93.10
2019-05-28T04:56:21.468Z,93.00
2019-05-28T04:58:50.915Z,93.30
2019-05-28T05:01:20.392Z,93.20
2019-05-28T05:03:49.902Z,93.50
2019-05-28T05:06:19.348Z,93.10
2019-05-28T05:08:49.675Z,93.20
2019-05-28T05:11:19.249Z,93.50
2019-05-28T05:13:48.851Z,93.60
2019-05-28T05:16:18.274Z,93.50
2019-05-28T05:18:47.810Z,93.50
2019-05-28T05:21:17.334Z,93.80
2019-05-28T05:23:46.859Z,94.00
2019-05-28T05:26:16.393Z,93.90
2019-05-28T05:28:45.937Z,93.90
2019-05-28T05:31:15.474Z,94.60
2019-05-28T05:33:45.031Z,95.00
2019-05-28T05:36:14.620Z,95.00
2019-05-28T05:38:44.289Z,94.40
2019-05-28T05:41:13.748Z,94.20
2019-05-28T05:43:43.229Z,94.30
2019-05-28T05:46:12.734Z,94.70
2019-05-28T05:48:42.691Z,94.50
2019-05-28T05:51:12.196Z,94.50
2019-05-28T05:53:41.770Z,94.50
2019-05-28T05:56:11.236Z,94.70
2019-05-28T05:58:41.019Z,95.20
2019-05-28T06:01:10.484Z,95.30
2019-05-28T06:03:41.700Z,95.10
2019-05-28T06:06:11.221Z,94.80
2019-05-28T06:08:40.747Z,94.50
2019-05-28T06:11:10.215Z,94.70
2019-05-28T06:13:40.117Z,94.70
2019-05-28T06:16:09.665Z,94.90
2019-05-28T06:18:39.156Z,94.80
2019-05-28T06:21:15.087Z,94.90
2019-05-28T06:23:39.946Z,94.80
2019-05-28T06:26:09.507Z,94.30
2019-05-28T06:28:39.029Z,94.60
2019-05-28T06:31:08.575Z,94.60
2019-05-28T06:33:38.152Z,93.80
2019-05-28T06:36:07.639Z,94.80
2019-05-28T06:38:37.073Z,94.70
2019-05-28T06:41:06.628Z,95.00
2019-05-28T06:43:36.178Z,94.20
2019-05-28T06:46:06.290Z,94.20
2019-05-28T06:48:35.876Z,93.50
2019-05-28T06:51:05.438Z,93.60
2019-05-28T06:53:34.965Z,93.80
2019-05-28T06:56:04.483Z,94.00
2019-05-28T06:58:39.528Z,93.90
2019-05-28T07:01:05.475Z,94.30
2019-05-28T07:03:35.167Z,93.90
2019-05-28T07:06:07.685Z,94.20
2019-05-28T07:08:35.864Z,94.40
2019-05-28T07:11:05.379Z,95.00
2019-05-28T07:13:34.913Z,95.40
2019-05-28T07:16:04.347Z,95.20
2019-05-28T07:18:33.862Z,95.60
2019-05-28T07:21:03.417Z,94.60
2019-05-28T07:23:32.926Z,94.50
2019-05-28T07:26:02.403Z,94.20
2019-05-28T07:28:31.915Z,94.30
2019-05-28T07:31:01.382Z,94.60
2019-05-28T07:33:34.826Z,94.10
2019-05-28T07:36:02.007Z,93.80
2019-05-28T07:38:31.523Z,94.30
2019-05-28T07:41:01.044Z,93.50
2019-05-28T07:43:30.494Z,93.10
2019-05-28T07:46:00.019Z,92.90
2019-05-28T07:48:29.546Z,92.90
2019-05-28T07:50:59.060Z,93.10
2019-05-28T07:53:39.252Z,92.50
2019-05-28T07:55:59.951Z,91.40
2019-05-28T07:58:29.496Z,91.70
2019-05-28T08:00:58.965Z,92.60
2019-05-28T08:03:28.470Z,91.60
2019-05-28T08:05:57.974Z,90.70
2019-05-28T08:08:27.956Z,90.40
2019-05-28T08:10:57.458Z,90.60
2019-05-28T08:13:40.327Z,89.90
2019-05-28T08:16:16.833Z,90.40
2019-05-28T08:18:29.420Z,91.10
2019-05-28T08:20:58.943Z,90.90
2019-05-28T08:23:28.387Z,91.00
2019-05-28T08:26:01.511Z,91.50
2019-05-28T08:28:29.107Z,90.50
2019-05-28T08:31:14.152Z,91.70
2019-05-28T08:33:33.123Z,91.40
2019-05-28T08:36:02.735Z,91.10
2019-05-28T08:38:32.180Z,91.60
2019-05-28T08:41:01.700Z,91.20
2019-05-28T08:43:31.152Z,91.40
2019-05-28T08:46:00.668Z,91.50
2019-05-28T08:48:30.268Z,90.90
2019-05-28T08:50:59.782Z,91.00
2019-05-28T08:53:29.753Z,90.20
2019-05-28T08:55:59.378Z,90.40
2019-05-28T08:58:28.981Z,90.30
2019-05-28T09:00:58.603Z,90.50
2019-05-28T09:03:28.245Z,90.10
2019-05-28T09:05:58.171Z,90.20
2019-05-28T09:08:38.477Z,90.20
2019-05-28T09:10:59.044Z,90.30
2019-05-28T09:13:28.631Z,90.00
2019-05-28T09:15:58.316Z,90.30
2019-05-28T09:18:27.874Z,88.90
2019-05-28T09:21:00.848Z,90.40
2019-05-28T09:23:30.538Z,89.90
2019-05-28T09:26:00.259Z,90.00
2019-05-28T09:28:31.318Z,88.40
2019-05-28T09:31:01.008Z,88.30
2019-05-28T09:33:30.536Z,88.10
2019-05-28T09:36:08.669Z,87.20
2019-05-28T09:38:33.039Z,88.40
2019-05-28T09:41:05.957Z,85.70
2019-05-28T09:43:34.859Z,83.10
2019-05-28T09:46:05.837Z,82.80
2019-05-28T09:48:35.384Z,82.20
2019-05-28T09:51:05.207Z,83.30
2019-05-28T09:53:35.201Z,88.60
2019-05-28T09:56:04.792Z,86.60
2019-05-28T09:58:34.390Z,85.10
2019-05-28T10:01:03.948Z,86.20
2019-05-28T10:03:33.471Z,84.60
2019-05-28T10:06:16.463Z,86.60
2019-05-28T10:08:34.352Z,87.50
2019-05-28T10:11:03.964Z,88.60
2019-05-28T10:13:39.524Z,88.20
2019-05-28T10:16:04.969Z,87.60
2019-05-28T10:18:36.404Z,89.00
2019-05-28T10:21:17.625Z,90.00
2019-05-28T10:23:37.195Z,89.70
2019-05-28T10:26:06.761Z,86.40
2019-05-28T10:28:36.867Z,87.60
2019-05-28T10:31:06.451Z,89.10
2019-05-28T10:33:36.064Z,89.60
2019-05-28T10:36:05.767Z,90.10
2019-05-28T10:38:35.924Z,90.90
2019-05-28T10:41:06.087Z,90.20
2019-05-28T10:43:35.620Z,89.80
2019-05-28T10:46:07.876Z,89.40
2019-05-28T10:48:37.916Z,87.00
2019-05-28T10:51:07.461Z,85.80
2019-05-28T10:53:36.982Z,86.10
2019-05-28T10:56:06.496Z,87.60
2019-05-28T10:58:36.439Z,83.30
2019-05-28T11:01:06.476Z,83.50
2019-05-28T11:03:36.122Z,80.40
2019-05-28T11:06:05.726Z,83.60
2019-05-28T11:08:35.238Z,81.30
2019-05-28T11:11:05.268Z,79.80
2019-05-28T11:13:34.791Z,78.30
2019-05-28T11:16:05.692Z,75.10
2019-05-28T11:18:35.295Z,74.90
2019-05-28T11:21:09.462Z,77.10
2019-05-28T11:23:36.069Z,77.20
2019-05-28T11:26:05.787Z,79.00
2019-05-28T11:28:35.413Z,80.50
2019-05-28T11:31:04.952Z,78.10
2019-05-28T11:33:34.905Z,77.00
2019-05-28T11:36:04.600Z,78.70
2019-05-28T11:38:34.046Z,80.30
2019-05-28T11:41:03.700Z,78.20
2019-05-28T11:43:33.250Z,76.20
2019-05-28T11:46:02.836Z,78.30
2019-05-28T11:48:32.424Z,78.20
2019-05-28T11:51:04.028Z,71.40
2019-05-28T11:53:36.670Z,72.60
2019-05-28T11:56:04.992Z,73.10
2019-05-28T11:58:34.559Z,64.20
2019-05-28T12:01:04.271Z,66.00
2019-05-28T12:03:34.228Z,63.40
2019-05-28T12:06:03.805Z,63.60
2019-05-28T12:08:33.342Z,62.10
2019-05-28T12:11:02.872Z,61.00
2019-05-28T12:13:32.688Z,60.80
2019-05-28T12:16:02.259Z,64.70
2019-05-28T12:18:31.839Z,62.70
2019-05-28T12:21:01.911Z,60.80
2019-05-28T12:23:31.434Z,58.40
2019-05-28T12:26:01.172Z,57.40
2019-05-28T12:28:37.848Z,58.40
2019-05-28T12:31:02.269Z,55.90
2019-05-28T12:33:31.797Z,55.40
2019-05-28T12:36:01.269Z,55.20
2019-05-28T12:38:30.864Z,53.40
2019-05-28T12:41:01.358Z,54.50
2019-05-28T12:43:31.355Z,58.20
2019-05-28T12:46:01.249Z,54.30
2019-05-28T12:48:30.856Z,52.60
2019-05-28T12:51:02.353Z,53.70
2019-05-28T12:53:48.208Z,54.80
2019-05-28T12:56:02.853Z,52.50
2019-05-28T12:58:42.277Z,52.00
2019-05-28T13:01:03.926Z,51.40
2019-05-28T13:03:33.867Z,51.20
2019-05-28T13:06:03.395Z,49.90
2019-05-28T13:08:32.987Z,51.60
2019-05-28T13:11:02.547Z,51.10
2019-05-28T13:13:32.300Z,52.80
2019-05-28T13:16:01.782Z,50.90
2019-05-28T13:18:31.463Z,50.00
2019-05-28T13:21:01.061Z,49.50
2019-05-28T13:23:30.507Z,49.40
2019-05-28T13:26:00.338Z,48.90
2019-05-28T13:28:29.869Z,49.80
2019-05-28T13:30:59.382Z,49.70
2019-05-28T13:33:28.852Z,50.20
2019-05-28T13:35:58.375Z,50.00
2019-05-28T13:38:28.036Z,50.20
2019-05-28T13:40:57.615Z,50.20
2019-05-28T13:43:27.132Z,51.70
2019-05-28T13:45:56.683Z,53.00
2019-05-28T13:48:26.175Z,53.50
2019-05-28T13:50:55.745Z,55.00
2019-05-28T13:53:25.335Z,56.20
2019-05-28T13:55:54.841Z,57.20
2019-05-28T13:58:24.364Z,57.10
2019-05-28T14:00:53.939Z,57.00
2019-05-28T14:03:23.539Z,57.50
2019-05-28T14:05:53.063Z,57.20
2019-05-28T14:08:22.580Z,58.30
2019-05-28T14:10:52.548Z,55.30
2019-05-28T14:13:22.094Z,56.80
2019-05-28T14:15:51.561Z,54.90
2019-05-28T14:18:24.137Z,54.00
2019-05-28T14:20:56.013Z,54.60
2019-05-28T14:23:25.523Z,58.10
2019-05-28T14:25:55.291Z,57.60
2019-05-28T14:28:24.864Z,54.60
2019-05-28T14:33:30.659Z,56.30
2019-05-28T14:36:00.218Z,53.70
2019-05-28T14:38:29.715Z,54.30
2019-05-28T14:41:00.061Z,53.20
2019-05-28T14:43:29.997Z,54.60
2019-05-28T14:45:59.425Z,53.80
2019-05-28T14:48:28.955Z,53.60
2019-05-28T14:50:58.851Z,54.40
2019-05-28T14:53:28.384Z,53.50
2019-05-28T14:55:57.926Z,55.30
2019-05-28T14:58:27.451Z,53.10
2019-05-28T15:00:57.031Z,52.90
2019-05-28T15:03:26.577Z,54.10
2019-05-28T15:05:56.090Z,53.60
2019-05-28T15:08:25.612Z,53.20
2019-05-28T15:10:55.146Z,51.60
2019-05-28T15:13:24.670Z,51.90
2019-05-28T15:15:54.563Z,52.10
2019-05-28T15:18:24.120Z,53.50
2019-05-28T15:20:53.626Z,53.60
2019-05-28T15:23:23.247Z,52.40
2019-05-28T15:25:52.784Z,52.00
2019-05-28T15:28:22.398Z,53.70
2019-05-28T15:30:51.900Z,52.00
2019-05-28T15:33:21.453Z,52.40
2019-05-28T15:35:50.991Z,51.80
2019-05-28T15:38:20.473Z,51.80
2019-05-28T15:40:50.012Z,51.40
2019-05-28T15:43:19.532Z,54.20
2019-05-28T15:45:55.255Z,54.20
2019-05-28T15:48:24.782Z,54.30
2019-05-28T15:50:54.297Z,52.40
2019-05-28T15:53:23.836Z,52.10
2019-05-28T15:55:53.395Z,52.00
2019-05-28T15:58:22.943Z,52.20
2019-05-28T16:00:52.517Z,50.70
2019-05-28T16:03:23.186Z,53.50
2019-05-28T16:05:52.983Z,51.20
2019-05-28T16:08:22.603Z,51.60
2019-05-28T16:10:52.099Z,53.20
2019-05-28T16:13:21.738Z,51.80
2019-05-28T16:15:51.203Z,51.80
2019-05-28T16:18:20.676Z,48.20
2019-05-28T16:20:50.207Z,49.60
2019-05-28T16:23:19.727Z,47.30
2019-05-28T16:25:49.235Z,49.10
2019-05-28T16:28:19.020Z,48.40
2019-05-28T16:30:48.597Z,49.40
2019-05-28T16:33:18.269Z,48.50
2019-05-28T16:35:48.940Z,52.20
2019-05-28T16:38:18.477Z,52.60
2019-05-28T16:40:48.084Z,52.60
2019-05-28T16:43:17.620Z,53.90
2019-05-28T16:45:47.166Z,52.70
2019-05-28T16:48:16.626Z,54.80
2019-05-28T16:50:46.135Z,54.50
2019-05-28T16:53:15.681Z,53.80
2019-05-28T16:55:45.221Z,53.10
2019-05-28T16:58:14.790Z,55.30
2019-05-28T17:00:44.382Z,54.10
2019-05-28T17:03:13.902Z,54.30
2019-05-28T17:05:43.436Z,55.70
2019-05-28T17:08:13.347Z,53.60
2019-05-28T17:10:42.864Z,48.70
2019-05-28T17:13:12.453Z,48.70
2019-05-28T17:15:41.952Z,48.10
2019-05-28T17:18:11.531Z,48.70
2019-05-28T17:20:41.061Z,47.20
2019-05-28T17:23:10.594Z,46.30
2019-05-28T17:25:40.221Z,45.30
2019-05-28T17:28:09.799Z,44.90
2019-05-28T17:30:39.456Z,44.70
2019-05-28T17:33:08.987Z,43.80
2019-05-28T17:35:38.569Z,43.10
2019-05-28T17:38:08.212Z,42.80
2019-05-28T17:40:47.936Z,42.60
2019-05-28T17:43:08.901Z,41.60
2019-05-28T17:45:39.452Z,41.00
2019-05-28T17:48:09.278Z,41.00
2019-05-28T17:50:39.019Z,41.90
2019-05-28T17:53:08.550Z,43.50
2019-05-28T17:55:38.161Z,46.30
2019-05-28T17:58:07.631Z,47.80
2019-05-28T18:00:37.248Z,49.30
2019-05-28T18:03:06.773Z,50.00
2019-05-28T18:05:36.363Z,51.60
2019-05-28T18:08:05.935Z,51.90
2019-05-28T18:10:35.436Z,52.20
2019-05-28T18:13:05.302Z,53.90
2019-05-28T18:15:34.791Z,55.40
2019-05-28T18:18:04.328Z,55.20
2019-05-28T18:20:33.834Z,56.60
2019-05-28T18:23:03.363Z,56.80
2019-05-28T18:25:32.958Z,57.20
2019-05-28T18:28:02.831Z,56.90
2019-05-28T18:30:32.357Z,57.10
2019-05-28T18:33:01.848Z,58.10
2019-05-28T18:35:31.531Z,59.30
2019-05-28T18:38:04.184Z,59.80
2019-05-28T18:40:32.365Z,58.80
2019-05-28T18:43:02.129Z,59.00
2019-05-28T18:45:31.748Z,59.30
2019-05-28T18:48:06.075Z,60.20
2019-05-28T18:50:35.738Z,61.20
2019-05-28T18:53:05.291Z,61.30
2019-05-28T18:55:41.288Z,62.50
2019-05-28T18:58:11.363Z,63.70
2019-05-28T19:00:40.888Z,62.90
2019-05-28T19:03:10.426Z,64.10
2019-05-28T19:05:39.999Z,64.10
2019-05-28T19:08:09.564Z,65.00
2019-05-28T19:10:39.083Z,65.70
2019-05-28T19:13:08.558Z,66.10
2019-05-28T19:15:38.075Z,67.20
2019-05-28T19:18:07.535Z,67.50
2019-05-28T19:20:36.972Z,67.70
2019-05-28T19:23:06.455Z,66.60
2019-05-28T19:25:36.022Z,66.70
2019-05-28T19:28:05.818Z,66.70
2019-05-28T19:30:35.711Z,68.00
2019-05-28T19:33:05.954Z,66.80
2019-05-28T19:35:35.731Z,67.70
2019-05-28T19:38:05.457Z,68.40
2019-05-28T19:40:36.701Z,68.00
2019-05-28T19:43:07.000Z,68.80
2019-05-28T19:45:37.210Z,68.10
2019-05-28T19:48:07.277Z,68.30
2019-05-28T19:50:36.826Z,67.80
2019-05-28T19:53:06.432Z,69.30
2019-05-28T19:55:35.939Z,70.40
2019-05-28T19:58:06.017Z,70.50
2019-05-28T20:00:35.783Z,70.90
2019-05-28T20:03:05.249Z,71.20
2019-05-28T20:05:34.736Z,71.80
2019-05-28T20:08:04.273Z,71.90
2019-05-28T20:10:33.784Z,71.90
2019-05-28T20:13:03.308Z,72.30
2019-05-28T20:15:32.820Z,72.40
2019-05-28T20:18:02.619Z,73.80
2019-05-28T20:20:32.085Z,73.20
2019-05-28T20:23:01.619Z,74.40
2019-05-28T20:25:31.038Z,73.70
2019-05-28T20:28:00.504Z,74.70
2019-05-28T20:30:30.081Z,75.20
2019-05-28T20:33:01.324Z,75.40
2019-05-28T20:35:31.315Z,75.40
2019-05-28T20:38:04.532Z,75.70
2019-05-28T20:40:31.805Z,75.70
2019-05-28T20:43:04.000Z,76.70
2019-05-28T20:45:33.613Z,76.50
2019-05-28T20:48:02.974Z,76.90
2019-05-28T20:50:32.413Z,77.10
2019-05-28T20:53:02.191Z,77.70
2019-05-28T20:55:33.790Z,78.10
2019-05-28T20:58:03.178Z,78.60
2019-05-28T21:00:32.662Z,78.40
2019-05-28T21:03:02.098Z,78.70
2019-05-28T21:05:31.542Z,79.00
2019-05-28T21:08:01.236Z,78.90
2019-05-28T21:10:30.743Z,79.60
2019-05-28T21:13:00.205Z,79.90
2019-05-28T21:15:29.811Z,79.60
2019-05-28T21:17:59.618Z,79.60
2019-05-28T21:20:29.145Z,80.30
2019-05-28T21:22:58.619Z,80.40
2019-05-28T21:25:30.462Z,80.20
2019-05-28T21:28:01.935Z,80.80
2019-05-28T21:30:31.482Z,80.60
2019-05-28T21:33:01.366Z,80.50
2019-05-28T21:35:32.277Z,80.80
2019-05-28T21:38:01.737Z,80.70
2019-05-28T21:40:31.041Z,81.40
2019-05-28T21:43:07.581Z,81.50
2019-05-28T21:45:31.626Z,81.50
2019-05-28T21:48:01.282Z,81.00
2019-05-28T21:50:30.899Z,81.40
2019-05-28T21:53:04.201Z,81.50
2019-05-28T21:55:33.798Z,82.00
2019-05-28T21:58:04.056Z,81.40
2019-05-28T22:00:44.211Z,81.90
2019-05-28T22:03:13.651Z,82.00
2019-05-28T22:05:43.521Z,82.20
2019-05-28T22:08:12.929Z,82.90
2019-05-28T22:10:42.321Z,83.00
2019-05-28T22:13:20.406Z,83.10
2019-05-28T22:15:42.908Z,83.10
2019-05-28T22:18:12.238Z,83.10
2019-05-28T22:20:41.667Z,83.00
2019-05-28T22:23:11.058Z,83.30
2019-05-28T22:25:40.486Z,83.70
2019-05-28T22:28:09.876Z,83.60
2019-05-28T22:30:39.227Z,83.50
2019-05-28T22:33:08.582Z,83.60
2019-05-28T22:35:37.976Z,84.10
2019-05-28T22:38:07.594Z,84.10
2019-05-28T22:40:37.085Z,83.80
2019-05-28T22:43:06.893Z,84.50
2019-05-28T22:45:41.783Z,84.10
2019-05-28T22:48:14.742Z,83.30
2019-05-28T22:50:38.522Z,84.00
2019-05-28T22:53:08.298Z,83.50
2019-05-28T22:55:37.705Z,84.80
2019-05-28T22:58:08.459Z,83.80
2019-05-28T23:00:39.082Z,84.30
2019-05-28T23:03:09.208Z,83.80
2019-05-28T23:05:38.809Z,84.10
2019-05-28T23:08:08.221Z,84.10
2019-05-28T23:10:37.548Z,82.90
2019-05-28T23:13:07.121Z,83.50
2019-05-28T23:15:36.485Z,84.20
2019-05-28T23:18:07.278Z,84.30
2019-05-28T23:20:36.950Z,84.00
2019-05-28T23:23:07.278Z,84.00
2019-05-28T23:25:36.795Z,84.10
2019-05-28T23:28:06.160Z,83.70
2019-05-28T23:30:35.555Z,83.80
2019-05-28T23:33:06.188Z,83.60
2019-05-28T23:35:35.657Z,84.50
2019-05-28T23:38:06.983Z,84.20
2019-05-28T23:40:36.409Z,84.30
2019-05-28T23:43:05.730Z,84.20
2019-05-28T23:45:35.114Z,84.50
2019-05-28T23:48:10.700Z,84.70
2019-05-28T23:50:35.558Z,84.00
2019-05-28T23:53:05.657Z,84.70
2019-05-28T23:55:35.162Z,84.80
2019-05-28T23:58:05.668Z,84.50
